Terminal Aerodrome Forecast
Issued by NWS

Home | Current Version | Previous Version | Graphics & Text | Print | Product List | Glossary On
Versions: 1 2 3 4 5 6 7 8 9 10 11 12 13 14 15 16 17 18 19 20 21 22 23
000
FTUS43 KGRB 210740 AAA
TAFAUW
TAF AMD
KAUW 210740Z 2108/2206 09006KT 2SM -DZ OVC003
      TEMPO 2109/2110 1SM -TSRA OVC005CB
     FM211000 13006KT 6SM -DZ BR OVC003
     FM211400 21008KT P6SM BKN003 BKN010
     FM211600 21011KT P6SM OVC015
     FM212000 24012G17KT P6SM OVC018=

USA.gov is the U.S. government's official web portal to all federal, state and local government web resources and services.